Time;durP1;ratioP1;P1;durP2;ratioP2;P2;SDS_P1;SDS_P2;PMS_P1;PMS_P2;Temp;Humidity;BMP_temperature;BMP_pressure;BME280_temperature;BME280_humidity;BME280_pressure;Samples;Min_cycle;Max_cycle;Signal;HPM_P1;HPM_P2
2021/05/24 00:00:22;;;;;;;9.70;3.10;;;;;;;11.17;71.84;100726.78;1812868;77;25700;-74
2021/05/24 00:02:50;;;;;;;6.87;2.98;;;;;;;11.17;71.90;100735.13;1788984;78;25206;-74
2021/05/24 00:05:20;;;;;;;5.83;2.67;;;;;;;11.15;71.88;100734.46;1789910;78;25486;-74
2021/05/24 00:07:47;;;;;;;6.22;3.40;;;;;;;11.15;71.81;100735.77;1784780;78;25679;-74
2021/05/24 00:10:20;;;;;;;5.33;2.45;;;;;;;11.12;71.79;100739.52;1812603;77;25116;-72
2021/05/24 00:12:48;;;;;;;6.87;3.00;;;;;;;11.13;71.87;100741.18;1809143;77;25518;-72
2021/05/24 00:15:19;;;;;;;5.53;2.42;;;;;;;11.13;71.87;100746.88;1736477;78;26020;-72
2021/05/24 00:17:47;;;;;;;7.78;3.02;;;;;;;11.13;71.84;100752.11;1811891;77;25542;-74
2021/05/24 00:20:14;;;;;;;5.60;2.77;;;;;;;11.09;71.85;100747.20;1811152;77;25446;-74
2021/05/24 00:22:40;;;;;;;3.60;2.45;;;;;;;11.12;72.00;100753.91;1813795;77;25667;-74
2021/05/24 00:25:08;;;;;;;5.83;2.63;;;;;;;11.16;72.13;100762.25;1809674;77;25601;-74
2021/05/24 00:27:34;;;;;;;6.20;2.85;;;;;;;11.18;72.18;100757.69;1812743;77;25195;-74
2021/05/24 00:30:01;;;;;;;5.40;2.85;;;;;;;11.20;72.05;100755.73;1813403;78;25195;-72
2021/05/24 00:32:28;;;;;;;4.60;2.50;;;;;;;11.19;71.97;100766.70;1809652;77;25673;-71
2021/05/24 00:34:54;;;;;;;5.12;2.20;;;;;;;11.15;72.03;100762.75;1787109;78;25354;-71
2021/05/24 00:37:20;;;;;;;6.20;2.53;;;;;;;11.13;72.14;100768.65;1791842;78;26058;-72
2021/05/24 00:39:46;;;;;;;4.83;2.67;;;;;;;11.12;72.16;100768.30;1788271;77;28811;-71
2021/05/24 00:42:12;;;;;;;5.28;2.62;;;;;;;11.07;72.08;100770.07;1809227;77;25718;-71
2021/05/24 00:44:38;;;;;;;7.12;2.67;;;;;;;11.06;72.21;100771.55;1785030;78;25652;-71
2021/05/24 00:47:05;;;;;;;7.12;3.33;;;;;;;10.98;72.30;100766.30;1790013;78;25601;-72
2021/05/24 00:49:31;;;;;;;5.75;2.92;;;;;;;10.93;72.45;100775.91;1784560;78;25676;-72
2021/05/24 00:51:59;;;;;;;6.12;2.70;;;;;;;10.91;72.51;100775.23;1784482;78;25493;-72
2021/05/24 00:54:27;;;;;;;5.42;2.58;;;;;;;10.85;72.73;100783.22;1786019;78;25623;-72
2021/05/24 00:56:54;;;;;;;6.92;3.58;;;;;;;10.83;72.75;100785.20;1791926;78;25570;-74
2021/05/24 00:59:21;;;;;;;12.25;3.47;;;;;;;10.83;73.03;100783.05;1818663;77;25527;-74
2021/05/24 01:01:47;;;;;;;5.80;3.50;;;;;;;10.78;72.96;100789.26;1811161;77;25488;-74
2021/05/24 01:04:15;;;;;;;6.53;4.00;;;;;;;10.74;73.06;100787.91;1783301;78;25272;-74
2021/05/24 01:06:43;;;;;;;5.87;3.60;;;;;;;10.70;73.21;100800.48;1777664;78;25538;-71
2021/05/24 01:09:10;;;;;;;10.65;3.87;;;;;;;10.67;73.45;100796.87;1804291;77;25192;-75
2021/05/24 01:11:36;;;;;;;6.65;3.85;;;;;;;10.62;73.67;100788.67;1771082;79;25179;-72
2021/05/24 01:14:04;;;;;;;4.25;3.47;;;;;;;10.61;73.87;100797.47;1806442;77;25804;-72
2021/05/24 01:16:31;;;;;;;5.65;3.80;;;;;;;10.59;73.95;100793.72;1779131;78;25619;-74
2021/05/24 01:18:57;;;;;;;6.62;3.30;;;;;;;10.61;74.08;100800.09;1776148;79;25208;-72
2021/05/24 01:21:24;;;;;;;7.80;3.37;;;;;;;10.57;74.48;100802.20;1771784;79;25184;-72
2021/05/24 01:23:51;;;;;;;5.58;3.30;;;;;;;10.54;74.44;100800.39;1780734;78;25733;-74
2021/05/24 01:26:19;;;;;;;6.47;2.92;;;;;;;10.51;74.54;100805.92;1809625;77;25719;-74
2021/05/24 01:28:46;;;;;;;7.83;3.35;;;;;;;10.53;74.68;100809.18;1805206;77;25130;-74
2021/05/24 01:31:13;;;;;;;6.35;3.02;;;;;;;10.52;74.59;100806.25;1803269;77;25569;-74
2021/05/24 01:33:39;;;;;;;7.40;2.60;;;;;;;10.51;74.60;100808.54;1735341;78;25240;-74
2021/05/24 01:36:09;;;;;;;4.03;3.08;;;;;;;10.50;74.69;100812.11;1777972;78;25163;-74
2021/05/24 01:38:38;;;;;;;5.97;3.15;;;;;;;10.42;74.76;100815.02;1805531;77;26568;-74
2021/05/24 01:41:06;;;;;;;4.92;2.87;;;;;;;10.38;74.89;100818.89;1800252;77;25451;-74
2021/05/24 01:43:33;;;;;;;6.10;3.83;;;;;;;10.34;75.03;100816.73;1782145;78;26159;-72
2021/05/24 01:45:59;;;;;;;4.90;3.12;;;;;;;10.30;75.10;100818.83;1782478;78;25474;-71
2021/05/24 01:48:26;;;;;;;6.62;4.20;;;;;;;10.31;75.14;100817.03;1786277;78;25168;-72
2021/05/24 01:50:53;;;;;;;6.67;3.70;;;;;;;10.30;75.18;100818.83;1796569;77;25860;-72
2021/05/24 01:53:21;;;;;;;5.78;3.85;;;;;;;10.29;75.10;100815.08;1810272;77;25177;-72
2021/05/24 01:55:47;;;;;;;13.30;5.95;;;;;;;10.26;75.11;100817.94;1777253;78;25427;-72
2021/05/24 01:58:14;;;;;;;9.58;4.95;;;;;;;10.23;75.19;100813.37;1778206;79;25144;-72
2021/05/24 02:00:41;;;;;;;5.87;4.92;;;;;;;10.24;75.26;100810.27;1747388;79;26354;-74
2021/05/24 02:03:08;;;;;;;10.72;5.20;;;;;;;10.26;75.30;100814.02;1776089;79;25546;-74
2021/05/24 02:05:35;;;;;;;7.47;5.62;;;;;;;10.23;75.25;100817.30;1781659;79;25889;-74
2021/05/24 02:08:02;;;;;;;7.65;5.35;;;;;;;10.19;75.33;100813.81;1776357;79;25569;-74
2021/05/24 02:10:32;;;;;;;9.08;5.58;;;;;;;10.18;75.41;100821.33;1777787;78;25784;-72
2021/05/24 02:12:59;;;;;;;9.90;6.42;;;;;;;10.14;75.38;100822.09;1773719;79;25795;-72
2021/05/24 02:15:30;;;;;;;10.10;6.40;;;;;;;10.11;75.41;100822.89;1778205;78;26245;-72
2021/05/24 02:17:56;;;;;;;9.00;6.20;;;;;;;10.12;75.53;100818.84;1773007;79;25966;-71
2021/05/24 02:20:25;;;;;;;8.63;5.80;;;;;;;10.14;75.53;100821.28;1771936;79;25993;-71
2021/05/24 02:22:57;;;;;;;9.40;5.40;;;;;;;10.12;75.53;100820.60;1774278;78;25226;-74
2021/05/24 02:25:25;;;;;;;9.18;5.53;;;;;;;10.09;75.55;100817.80;1780975;78;25498;-73
2021/05/24 02:27:51;;;;;;;10.25;5.37;;;;;;;10.04;75.45;100821.84;1779278;79;25918;-73
2021/05/24 02:30:19;;;;;;;9.45;4.80;;;;;;;10.01;75.48;100826.87;1781971;79;25245;-74
2021/05/24 02:32:46;;;;;;;9.28;5.28;;;;;;;9.96;75.57;100833.87;1778437;79;25624;-73
2021/05/24 02:35:15;;;;;;;7.90;5.20;;;;;;;9.91;75.65;100828.77;1782195;79;25339;-71
2021/05/24 02:37:43;;;;;;;6.37;4.37;;;;;;;9.89;75.74;100832.00;1749775;79;25561;-71
2021/05/24 02:40:11;;;;;;;8.78;4.60;;;;;;;9.90;75.86;100836.24;1783882;79;25731;-71
2021/05/24 02:42:37;;;;;;;7.05;4.35;;;;;;;9.93;75.96;100845.08;1779750;78;25623;-71
2021/05/24 02:45:10;;;;;;;8.30;3.90;;;;;;;9.91;75.95;100844.43;1777898;79;25569;-71
2021/05/24 02:47:36;;;;;;;9.45;4.70;;;;;;;9.93;76.02;100840.70;1777836;79;26490;-71
2021/05/24 02:50:08;;;;;;;9.53;4.50;;;;;;;9.97;75.99;100840.73;1778335;79;25552;-71
2021/05/24 02:52:35;;;;;;;8.05;4.50;;;;;;;9.96;75.96;100839.09;1779316;78;26431;-71
2021/05/24 02:55:03;;;;;;;7.15;4.37;;;;;;;9.98;75.98;100851.53;1780504;79;25647;-71
2021/05/24 02:57:30;;;;;;;7.70;4.03;;;;;;;10.01;76.10;100859.52;1779043;78;25182;-73
2021/05/24 02:59:55;;;;;;;7.17;4.22;;;;;;;9.96;76.05;100869.62;1774019;79;25223;-73
2021/05/24 03:02:29;;;;;;;6.37;4.03;;;;;;;9.90;76.13;100868.42;1781525;79;32514;-73
2021/05/24 03:04:55;;;;;;;8.15;3.95;;;;;;;9.88;76.26;100866.44;1776226;79;25542;-73
2021/05/24 03:07:23;;;;;;;6.62;3.77;;;;;;;9.88;76.33;100865.62;1766441;79;25145;-74
2021/05/24 03:09:50;;;;;;;10.25;3.58;;;;;;;9.87;76.41;100862.16;1762382;79;25200;-71
2021/05/24 03:12:16;;;;;;;8.90;3.72;;;;;;;9.89;76.45;100865.45;1759352;79;26444;-71
2021/05/24 03:14:42;;;;;;;8.65;4.00;;;;;;;9.89;76.57;100868.55;1762672;79;25243;-73
2021/05/24 03:17:08;;;;;;;6.40;3.70;;;;;;;9.85;76.94;100874.56;1758653;79;25708;-73
2021/05/24 03:19:34;;;;;;;8.15;4.33;;;;;;;9.78;76.91;100879.53;1760627;79;25587;-74
2021/05/24 03:22:01;;;;;;;8.10;4.25;;;;;;;9.73;77.00;100878.34;1776466;78;25131;-73
2021/05/24 03:24:27;;;;;;;11.30;3.90;;;;;;;9.73;77.13;100884.86;1781651;78;25177;-74
2021/05/24 03:26:53;;;;;;;6.65;4.08;;;;;;;9.77;77.27;100888.34;1770891;78;25626;-73
2021/05/24 03:29:19;;;;;;;7.33;4.17;;;;;;;9.82;77.29;100890.53;1771846;78;26029;-73
2021/05/24 03:31:45;;;;;;;7.73;3.87;;;;;;;9.88;77.30;100898.26;1765542;79;28022;-73
2021/05/24 03:34:11;;;;;;;7.37;4.10;;;;;;;9.94;77.25;100894.56;1765952;79;26489;-71
2021/05/24 03:36:37;;;;;;;6.97;3.87;;;;;;;10.00;77.21;100892.66;1770293;79;25181;-71
2021/05/24 03:39:04;;;;;;;7.42;4.08;;;;;;;10.11;77.24;100901.25;1768510;79;32310;-71
2021/05/24 03:41:31;;;;;;;6.78;3.83;;;;;;;10.17;77.16;100911.91;1764308;79;25561;-71
2021/05/24 03:43:56;;;;;;;9.93;3.60;;;;;;;10.17;77.10;100917.63;1767462;79;28492;-71
2021/05/24 03:46:23;;;;;;;7.30;3.87;;;;;;;10.19;77.20;100917.00;1768184;79;26550;-73
2021/05/24 03:48:49;;;;;;;7.35;3.77;;;;;;;10.17;77.12;100911.91;1777564;78;25607;-74
2021/05/24 03:51:14;;;;;;;9.43;4.80;;;;;;;10.21;77.19;100922.91;1769204;79;32437;-73
2021/05/24 03:53:40;;;;;;;7.37;4.00;;;;;;;10.26;77.40;100922.44;1768372;79;26523;-73
2021/05/24 03:56:06;;;;;;;8.48;4.05;;;;;;;10.25;77.24;100926.03;1744755;80;25193;-73
2021/05/24 03:58:32;;;;;;;6.92;3.60;;;;;;;10.27;77.24;100930.17;1767510;79;25153;-74
2021/05/24 04:00:58;;;;;;;5.75;3.45;;;;;;;10.33;77.33;100927.45;1763707;79;25552;-71
2021/05/24 04:03:25;;;;;;;8.18;3.77;;;;;;;10.38;77.33;100930.44;1768045;79;32268;-73
2021/05/24 04:05:58;;;;;;;6.50;3.95;;;;;;;10.41;77.26;100932.75;1791037;77;25623;-73
2021/05/24 04:08:19;;;;;;;11.15;4.03;;;;;;;10.46;77.32;100936.23;1809792;77;25159;-71
2021/05/24 04:10:53;;;;;;;5.70;3.30;;;;;;;10.52;77.34;100942.16;1792523;78;28433;-71
2021/05/24 04:13:12;;;;;;;9.60;3.50;;;;;;;10.58;77.58;100942.36;1810579;78;25554;-71
2021/05/24 04:15:40;;;;;;;11.75;3.70;;;;;;;10.59;77.38;100939.28;1808854;78;25568;-72
2021/05/24 04:18:12;;;;;;;5.08;3.50;;;;;;;10.60;77.30;100935.20;1807219;78;25694;-71
2021/05/24 04:20:34;;;;;;;6.20;3.42;;;;;;;10.66;77.41;100933.77;1804102;78;25705;-72
2021/05/24 04:23:00;;;;;;;8.00;3.67;;;;;;;10.73;77.38;100941.84;1781277;78;27446;-72
2021/05/24 04:25:26;;;;;;;9.33;4.05;;;;;;;10.83;77.41;100942.09;1750972;80;25579;-71
2021/05/24 04:27:52;;;;;;;8.70;3.87;;;;;;;10.87;77.15;100941.30;1781312;78;25608;-72
2021/05/24 04:30:20;;;;;;;7.53;3.98;;;;;;;10.93;77.14;100946.40;1808337;78;25652;-72
2021/05/24 04:32:46;;;;;;;8.78;3.87;;;;;;;10.99;77.04;100949.21;1786584;78;25269;-71
2021/05/24 04:35:14;;;;;;;7.30;4.20;;;;;;;11.06;77.04;100954.67;1786252;77;25640;-74
2021/05/24 04:37:40;;;;;;;7.20;3.83;;;;;;;11.09;76.85;100950.44;1814915;78;25471;-74
2021/05/24 04:40:07;;;;;;;8.73;3.90;;;;;;;11.15;76.93;100949.81;1810712;78;32394;-74
2021/05/24 04:42:33;;;;;;;8.38;3.75;;;;;;;11.22;76.77;100957.39;1816324;78;25565;-75
2021/05/24 04:44:59;;;;;;;6.90;3.85;;;;;;;11.24;76.64;100950.67;1746121;80;25627;-75
2021/05/24 04:47:25;;;;;;;8.67;4.23;;;;;;;11.33;76.56;100941.91;1807962;77;25774;-74
2021/05/24 04:49:51;;;;;;;5.53;3.58;;;;;;;11.44;76.44;100948.68;1778659;78;25719;-75
2021/05/24 04:52:19;;;;;;;8.05;4.30;;;;;;;11.51;76.15;100942.67;1808921;77;32222;-75
2021/05/24 04:54:46;;;;;;;8.03;4.08;;;;;;;11.58;76.29;100946.78;1783022;79;25668;-75
2021/05/24 04:57:13;;;;;;;5.92;3.85;;;;;;;11.67;76.11;100945.01;1782517;79;25547;-74
2021/05/24 04:59:39;;;;;;;8.80;3.90;;;;;;;11.78;76.04;100947.34;1783982;79;25184;-74
2021/05/24 05:02:06;;;;;;;11.60;3.87;;;;;;;11.87;75.80;100953.48;1780345;79;25540;-74
2021/05/24 05:04:32;;;;;;;6.30;3.67;;;;;;;11.91;75.53;100947.75;1782991;79;25189;-74
2021/05/24 05:06:58;;;;;;;11.68;4.17;;;;;;;11.96;75.45;100952.52;1762186;79;25486;-73
2021/05/24 05:09:25;;;;;;;7.83;3.30;;;;;;;12.04;75.66;100945.98;1760433;79;31837;-72
2021/05/24 05:11:55;;;;;;;6.78;3.35;;;;;;;12.16;75.44;100946.50;1757192;79;25625;-71
2021/05/24 05:14:22;;;;;;;10.72;3.90;;;;;;;12.30;75.26;100952.91;1755976;80;25644;-72
2021/05/24 05:16:48;;;;;;;7.65;3.35;;;;;;;12.39;75.09;100948.84;1757422;79;26249;-72
2021/05/24 05:19:16;;;;;;;6.97;3.67;;;;;;;12.48;74.81;100950.16;1760636;79;26515;-73
2021/05/24 05:21:44;;;;;;;7.00;3.37;;;;;;;12.52;74.65;100948.37;1760960;80;25592;-72
2021/05/24 05:24:10;;;;;;;7.75;3.72;;;;;;;12.61;74.58;100950.00;1757005;79;27350;-72
2021/05/24 05:26:36;;;;;;;8.50;3.95;;;;;;;12.65;74.41;100946.05;1760325;80;25543;-72
2021/05/24 05:29:02;;;;;;;9.25;4.62;;;;;;;12.77;74.33;100947.06;1759977;79;25292;-71
2021/05/24 05:31:28;;;;;;;7.00;3.67;;;;;;;12.83;73.88;100954.27;1763951;79;25771;-72
2021/05/24 05:33:54;;;;;;;7.60;3.52;;;;;;;12.86;74.00;100955.23;1756403;79;25561;-71
2021/05/24 05:36:21;;;;;;;4.80;3.40;;;;;;;12.91;74.00;100951.63;1760049;79;25116;-71
2021/05/24 05:38:47;;;;;;;9.53;3.17;;;;;;;12.98;73.95;100955.21;1760970;79;25211;-72
2021/05/24 05:41:13;;;;;;;9.33;3.77;;;;;;;13.10;73.87;100946.52;1755070;80;32196;-73
2021/05/24 05:43:38;;;;;;;8.18;3.67;;;;;;;13.20;73.96;100947.14;1756162;79;25546;-73
2021/05/24 05:46:04;;;;;;;8.18;3.52;;;;;;;13.30;73.84;100950.93;1731574;80;32840;-73
2021/05/24 05:48:30;;;;;;;7.43;3.50;;;;;;;13.41;73.68;100948.44;1759731;80;29431;-73
2021/05/24 05:50:56;;;;;;;6.67;3.27;;;;;;;13.51;73.61;100949.07;1763365;79;34620;-73
2021/05/24 05:53:22;;;;;;;6.15;2.95;;;;;;;13.61;73.31;100947.04;1764233;79;25596;-73
2021/05/24 05:55:48;;;;;;;7.70;3.20;;;;;;;13.69;73.20;100954.89;1760384;79;25525;-73
2021/05/24 05:58:14;;;;;;;5.53;3.12;;;;;;;13.79;72.94;100954.70;1761016;79;33044;-72
2021/05/24 06:00:40;;;;;;;5.00;2.52;;;;;;;13.83;72.46;100956.00;1757775;79;25196;-73
2021/05/24 06:03:06;;;;;;;6.08;2.70;;;;;;;13.87;71.97;100965.17;1735240;80;35467;-72
2021/05/24 06:05:32;;;;;;;13.55;3.40;;;;;;;13.88;71.80;100965.98;1760837;79;26258;-73
2021/05/24 06:07:59;;;;;;;6.83;3.27;;;;;;;13.92;72.21;100973.36;1761600;79;25498;-72
2021/05/24 06:10:25;;;;;;;7.87;3.17;;;;;;;13.99;72.11;100977.42;1760541;79;25374;-73
2021/05/24 06:12:51;;;;;;;4.90;2.12;;;;;;;14.03;72.05;100989.75;1762571;79;25539;-71
2021/05/24 06:15:18;;;;;;;5.97;2.83;;;;;;;14.06;71.90;100989.40;1761466;79;34710;-72
2021/05/24 06:17:46;;;;;;;5.35;2.37;;;;;;;14.11;71.93;100988.39;1759447;79;25177;-72
2021/05/24 06:20:12;;;;;;;5.47;2.80;;;;;;;14.13;71.46;100988.54;1758387;79;25713;-72
2021/05/24 06:22:39;;;;;;;4.87;2.77;;;;;;;14.16;71.55;100990.01;1761047;79;25465;-73
2021/05/24 06:25:08;;;;;;;7.83;2.98;;;;;;;14.24;71.59;100988.65;1760802;79;25542;-72
2021/05/24 06:27:35;;;;;;;5.15;3.10;;;;;;;14.31;71.26;100987.45;1759063;79;25615;-73
2021/05/24 06:30:05;;;;;;;4.92;2.02;;;;;;;14.41;70.94;100980.97;1761014;79;25165;-72
2021/05/24 06:32:31;;;;;;;6.20;2.12;;;;;;;14.46;70.34;100979.61;1746716;81;30392;-72
2021/05/24 06:34:57;;;;;;;3.80;2.20;;;;;;;14.54;69.79;100984.38;1761828;79;32719;-72
2021/05/24 06:37:23;;;;;;;3.83;1.87;;;;;;;14.59;69.64;100976.74;1760233;79;31159;-72
2021/05/24 06:39:49;;;;;;;4.15;1.98;;;;;;;14.68;69.60;100989.36;1784489;78;34632;-72
2021/05/24 06:42:15;;;;;;;4.78;2.37;;;;;;;14.80;69.39;100989.75;1759833;79;32364;-71
2021/05/24 06:44:41;;;;;;;5.83;2.72;;;;;;;14.87;68.97;100988.88;1757503;80;25693;-72
2021/05/24 06:47:07;;;;;;;4.30;2.47;;;;;;;14.98;69.35;100989.45;1760039;78;33193;-71
2021/05/24 06:49:34;;;;;;;3.72;1.87;;;;;;;15.06;69.15;100986.75;1760661;80;31221;-71
2021/05/24 06:52:02;;;;;;;3.90;2.05;;;;;;;15.12;68.84;100992.61;1787862;78;25525;-70
2021/05/24 06:54:29;;;;;;;4.72;1.90;;;;;;;15.20;68.84;100991.21;1789181;78;25594;-71
2021/05/24 06:56:55;;;;;;;3.75;1.80;;;;;;;15.31;67.88;100992.08;1787166;78;25487;-71
2021/05/24 06:59:21;;;;;;;4.58;1.80;;;;;;;15.36;67.60;100985.44;1783790;79;25466;-71
2021/05/24 07:01:47;;;;;;;5.72;2.00;;;;;;;15.42;67.05;100988.69;1760354;79;31304;-71
2021/05/24 07:04:13;;;;;;;2.60;1.40;;;;;;;15.49;66.92;100989.08;1762237;79;25544;-71
2021/05/24 07:06:39;;;;;;;2.83;1.62;;;;;;;15.61;67.18;100992.09;1757108;79;25567;-71
2021/05/24 07:09:06;;;;;;;2.55;1.62;;;;;;;15.76;66.42;100989.47;1759384;79;25657;-71
2021/05/24 07:11:32;;;;;;;5.80;1.75;;;;;;;15.81;65.94;100990.24;1761370;80;25595;-71
2021/05/24 07:13:58;;;;;;;3.72;1.67;;;;;;;15.87;65.58;100997.41;1758563;79;31216;-71
2021/05/24 07:16:24;;;;;;;4.40;1.72;;;;;;;15.91;66.27;101000.82;1759876;79;25512;-71
2021/05/24 07:18:50;;;;;;;3.30;1.57;;;;;;;16.01;65.92;101006.30;1755943;79;32246;-71
2021/05/24 07:21:16;;;;;;;7.47;1.70;;;;;;;16.11;65.32;101016.06;1761014;79;25966;-71
2021/05/24 07:23:41;;;;;;;3.85;1.37;;;;;;;16.18;65.78;101013.81;1755040;79;32730;-70
2021/05/24 07:26:07;;;;;;;2.15;1.37;;;;;;;16.31;65.07;101014.45;1749099;80;31140;-71
2021/05/24 07:28:33;;;;;;;3.37;1.77;;;;;;;16.39;64.90;101017.48;1748274;79;34664;-71
2021/05/24 07:30:59;;;;;;;5.75;2.35;;;;;;;16.47;63.65;101013.91;1756334;79;32329;-70
2021/05/24 07:33:25;;;;;;;6.05;2.02;;;;;;;16.47;63.65;101013.91;1755933;79;25592;-72
2021/05/24 07:35:52;;;;;;;3.95;1.92;;;;;;;16.49;62.61;101014.55;1756314;80;25500;-73
2021/05/24 07:38:19;;;;;;;3.22;1.70;;;;;;;16.49;62.94;101023.27;1761865;79;25220;-73
2021/05/24 07:40:45;;;;;;;3.45;2.12;;;;;;;16.52;62.28;101027.36;1756242;79;25566;-72
2021/05/24 07:43:11;;;;;;;3.92;1.50;;;;;;;16.54;62.44;101033.28;1758987;79;32388;-70
2021/05/24 07:45:37;;;;;;;4.65;1.82;;;;;;;16.58;62.44;101034.02;1760487;79;26080;-71
2021/05/24 07:48:04;;;;;;;2.05;1.30;;;;;;;16.68;62.34;101040.83;1747864;80;33298;-71
2021/05/24 07:50:30;;;;;;;2.30;1.30;;;;;;;16.75;61.65;101033.28;1750299;79;25622;-72
2021/05/24 07:52:56;;;;;;;2.15;1.35;;;;;;;16.82;61.70;101040.78;1757674;79;34671;-72
2021/05/24 07:55:22;;;;;;;9.55;1.30;;;;;;;16.81;59.67;101029.91;1757898;79;32811;-73
2021/05/24 07:57:48;;;;;;;3.55;1.75;;;;;;;16.81;60.78;101026.46;1760928;79;26130;-73
2021/05/24 08:00:16;;;;;;;2.22;1.30;;;;;;;16.81;60.78;101026.46;1752355;79;32853;-73
2021/05/24 08:02:44;;;;;;;6.60;1.27;;;;;;;16.87;60.76;101024.38;1746660;80;25548;-72
2021/05/24 08:05:13;;;;;;;3.60;1.32;;;;;;;16.90;59.47;101037.20;1750866;80;26477;-73
2021/05/24 08:07:40;;;;;;;5.15;1.30;;;;;;;16.86;57.35;101035.95;1729050;81;25825;-73
2021/05/24 08:10:09;;;;;;;3.90;1.00;;;;;;;16.77;58.04;101033.11;1755359;79;25594;-73
2021/05/24 08:12:38;;;;;;;1.85;1.20;;;;;;;16.64;57.77;101035.92;1733152;79;25816;-74
2021/05/24 08:15:09;;;;;;;4.30;1.10;;;;;;;16.64;58.51;101035.92;1756859;79;25182;-75
2021/05/24 08:17:36;;;;;;;1.32;0.90;;;;;;;16.73;58.58;101030.52;1754581;79;25250;-75
2021/05/24 08:20:05;;;;;;;6.60;1.55;;;;;;;16.82;58.54;101034.69;1761908;79;25501;-74
2021/05/24 08:22:31;;;;;;;5.70;1.47;;;;;;;16.93;57.37;101027.57;1757862;79;26160;-74
2021/05/24 08:24:57;;;;;;;2.12;1.32;;;;;;;16.96;58.57;101036.94;1757012;80;25651;-75
2021/05/24 08:27:23;;;;;;;3.08;1.50;;;;;;;16.92;57.66;101037.83;1786927;78;31183;-76
2021/05/24 08:29:49;;;;;;;8.28;1.30;;;;;;;16.95;58.74;101032.67;1766597;79;25166;-74
2021/05/24 08:32:15;;;;;;;3.02;1.30;;;;;;;17.16;59.05;101029.16;1764059;79;32403;-76
2021/05/24 08:34:41;;;;;;;4.10;1.42;;;;;;;17.39;58.85;101032.39;1736183;80;26787;-75
2021/05/24 08:37:07;;;;;;;3.58;1.40;;;;;;;17.57;58.89;101028.42;1767617;79;32695;-75
2021/05/24 08:39:33;;;;;;;4.87;1.60;;;;;;;17.58;57.44;101032.72;1716242;79;25237;-75
2021/05/24 08:42:01;;;;;;;5.33;1.50;;;;;;;17.50;57.64;101027.08;1765191;79;25570;-74
2021/05/24 08:44:27;;;;;;;3.05;1.30;;;;;;;17.60;58.10;101035.99;1764837;79;25548;-75
2021/05/24 08:46:54;;;;;;;2.27;1.07;;;;;;;17.71;57.52;101041.54;1765307;79;25503;-75
2021/05/24 08:49:20;;;;;;;5.25;1.37;;;;;;;17.83;57.56;101048.95;1765462;79;25536;-75
2021/05/24 08:51:46;;;;;;;3.15;1.40;;;;;;;17.88;57.13;101042.06;1763683;80;25632;-75
2021/05/24 08:54:14;;;;;;;2.50;1.25;;;;;;;17.85;56.70;101037.16;1763999;79;25595;-75
2021/05/24 08:56:40;;;;;;;3.52;1.05;;;;;;;17.91;57.09;101032.41;1762389;80;25171;-74
2021/05/24 08:59:06;;;;;;;4.40;1.25;;;;;;;17.88;56.20;101028.02;1768557;79;25723;-74
2021/05/24 09:01:32;;;;;;;3.60;1.05;;;;;;;17.82;56.01;101024.34;1769405;79;25210;-75
2021/05/24 09:04:02;;;;;;;4.53;1.55;;;;;;;17.84;56.13;101014.87;1766587;79;31233;-73
2021/05/24 09:06:42;;;;;;;5.35;1.30;;;;;;;17.81;55.53;101024.52;1743693;79;25484;-74
2021/05/24 09:09:18;;;;;;;3.50;1.20;;;;;;;17.76;55.07;101021.13;1790347;79;25129;-73
2021/05/24 09:11:46;;;;;;;4.90;1.27;;;;;;;17.78;55.16;101027.02;1786073;79;25808;-71
2021/05/24 09:14:18;;;;;;;3.62;1.12;;;;;;;17.82;54.68;101020.37;1786444;78;26228;-71
2021/05/24 09:16:58;;;;;;;6.15;1.20;;;;;;;17.82;54.89;101024.34;1767646;79;25558;-75
2021/05/24 09:19:28;;;;;;;4.25;1.20;;;;;;;17.86;55.35;101023.43;1751834;79;25635;-75
2021/05/24 09:21:59;;;;;;;1.40;0.87;;;;;;;17.84;55.17;101021.00;1783665;79;25895;-75
2021/05/24 09:24:39;;;;;;;1.95;1.20;;;;;;;17.84;54.89;101013.55;1781545;79;25654;-75
2021/05/24 09:27:09;;;;;;;2.17;0.95;;;;;;;17.88;55.09;101011.64;1785875;79;25575;-76
2021/05/24 09:29:47;;;;;;;2.27;1.40;;;;;;;17.99;55.12;101008.94;1779596;78;25684;-76
2021/05/24 09:32:24;;;;;;;2.00;1.25;;;;;;;18.12;55.14;101004.21;1783638;79;25538;-75
2021/05/24 09:34:50;;;;;;;7.78;1.72;;;;;;;18.27;53.80;100996.91;1785412;78;25570;-72
2021/05/24 09:37:20;;;;;;;11.78;2.35;;;;;;;18.30;54.20;100993.86;1782494;78;25638;-74
2021/05/24 09:39:46;;;;;;;7.60;1.57;;;;;;;18.43;54.33;100994.41;1781915;78;25940;-74
2021/05/24 09:42:15;;;;;;;8.03;1.30;;;;;;;18.59;53.95;100986.59;1782525;79;25657;-75
2021/05/24 09:44:54;;;;;;;18.37;2.75;;;;;;;18.69;52.87;100979.55;1788451;79;25301;-75
2021/05/24 09:47:36;;;;;;;20.35;2.25;;;;;;;18.75;52.98;100984.89;1754451;79;25225;-75
2021/05/24 09:50:15;;;;;;;5.15;1.50;;;;;;;18.83;53.02;100975.42;1784552;79;25574;-75
2021/05/24 09:52:43;;;;;;;5.37;1.20;;;;;;;18.96;53.11;100971.96;1783884;79;25267;-75
2021/05/24 09:55:26;;;;;;;3.37;1.00;;;;;;;19.08;52.16;100966.33;1784039;79;25356;-75
2021/05/24 09:58:04;;;;;;;2.02;1.42;;;;;;;19.14;52.09;100969.17;1779678;78;25163;-74
2021/05/24 10:01:02;;;;;;;7.20;1.50;;;;;;;19.14;50.77;100973.96;1780034;78;25220;-76
2021/05/24 10:03:11;;;;;;;7.37;1.20;;;;;;;19.13;52.26;100972.34;1763189;79;25536;-76
2021/05/24 10:05:43;;;;;;;2.02;0.95;;;;;;;19.20;51.83;100969.16;1773903;79;25177;-75
2021/05/24 10:08:10;;;;;;;4.75;1.40;;;;;;;19.20;51.37;100973.64;1769977;79;25091;-75
2021/05/24 10:10:38;;;;;;;4.58;1.50;;;;;;;19.20;51.50;100973.13;1757546;79;25222;-76
2021/05/24 10:13:04;;;;;;;5.25;1.30;;;;;;;19.17;51.23;100968.25;1740465;80;25472;-76
2021/05/24 10:15:30;;;;;;;11.70;1.40;;;;;;;19.24;51.31;100979.66;1765452;79;25526;-76
2021/05/24 10:18:01;;;;;;;11.88;1.40;;;;;;;19.34;50.77;100973.91;1765440;79;25409;-76
2021/05/24 10:20:28;;;;;;;;;;;;;;;19.39;50.87;100982.06;1767408;79;25244;-75
2021/05/24 10:22:54;;;;;;;11.20;1.15;;;;;;;19.40;50.67;100973.63;1762122;79;25639;-76
2021/05/24 10:25:20;;;;;;;2.47;1.27;;;;;;;19.40;50.77;100975.76;1765493;79;25566;-76
2021/05/24 10:27:47;;;;;;;4.50;1.30;;;;;;;19.42;50.73;100975.53;1764247;79;25531;-77
2021/05/24 10:30:14;;;;;;;6.37;0.82;;;;;;;19.45;50.98;100969.32;1766675;79;25609;-76
2021/05/24 10:32:59;;;;;;;2.62;1.00;;;;;;;19.55;50.36;100982.64;1763887;79;25208;-77
2021/05/24 10:35:36;;;;;;;2.85;1.00;;;;;;;19.60;50.09;100981.51;1765759;79;25517;-76
2021/05/24 10:38:27;;;;;;;6.08;1.32;;;;;;;19.62;49.92;100972.32;1760467;79;25494;-75
2021/05/24 10:41:04;;;;;;;4.65;1.40;;;;;;;19.68;49.57;100968.86;1764260;79;26345;-77
2021/05/24 10:43:49;;;;;;;5.40;1.50;;;;;;;19.68;49.89;100974.16;1765296;79;25719;-77
2021/05/24 10:46:30;;;;;;;2.95;1.17;;;;;;;19.66;49.25;100964.78;1765281;79;25188;-77
2021/05/24 10:49:02;;;;;;;2.50;1.20;;;;;;;19.58;48.86;100962.33;1765840;79;25450;-75
2021/05/24 10:51:55;;;;;;;1.67;0.98;;;;;;;19.59;49.16;100966.11;1763894;79;25242;-74
2021/05/24 10:54:25;;;;;;;3.02;0.90;;;;;;;19.62;49.35;100968.34;1769527;79;25616;-76
2021/05/24 10:57:05;;;;;;;1.40;0.93;;;;;;;19.68;49.52;100964.06;1765538;79;25775;-75
2021/05/24 10:59:47;;;;;;;2.25;1.20;;;;;;;19.65;48.73;100963.13;1767236;79;25994;-76
2021/05/24 11:02:17;;;;;;;2.37;1.40;;;;;;;19.58;49.38;100963.66;1764015;79;25528;-75
2021/05/24 11:04:59;;;;;;;7.60;1.72;;;;;;;19.56;49.52;100954.60;1763637;79;25628;-75
2021/05/24 11:07:44;;;;;;;3.55;1.40;;;;;;;19.56;49.36;100943.16;1737493;79;25632;-77
2021/05/24 11:10:21;;;;;;;6.37;1.57;;;;;;;19.60;48.39;100936.42;1789008;78;25496;-76
2021/05/24 11:13:13;;;;;;;3.10;1.42;;;;;;;19.59;48.93;100937.43;1791196;79;25720;-74
2021/05/24 11:15:45;;;;;;;11.00;1.80;;;;;;;19.62;49.16;100945.80;1786419;79;25550;-73
2021/05/24 11:18:19;;;;;;;6.70;2.08;;;;;;;19.70;49.53;100952.74;1788616;79;25901;-73
2021/05/24 11:21:01;;;;;;;3.60;1.42;;;;;;;19.77;49.34;100948.20;1759386;79;25514;-75
2021/05/24 11:26:37;;;;;;;5.35;2.22;;;;;;;19.83;47.97;100951.33;1757005;79;25599;-75
2021/05/24 11:29:18;;;;;;;6.92;4.62;;;;;;;19.85;48.58;100949.28;1788674;78;25583;-76
2021/05/24 11:31:48;;;;;;;5.35;1.60;;;;;;;19.95;48.46;100958.94;1791013;79;25157;-74
2021/05/24 11:34:36;;;;;;;3.75;1.98;;;;;;;19.99;48.46;100943.91;1791745;79;25590;-73